createdAt,value
2023-03-08T00:02:16.162Z,5.70
2023-03-08T00:04:43.108Z,5.60
2023-03-08T00:07:10.150Z,5.50
2023-03-08T00:09:38.457Z,5.40
2023-03-08T00:12:07.315Z,5.40
2023-03-08T00:14:34.347Z,5.30
2023-03-08T00:17:02.603Z,5.20
2023-03-08T00:19:29.591Z,5.20
2023-03-08T00:21:56.939Z,5.20
2023-03-08T00:24:23.855Z,5.10
2023-03-08T00:26:50.752Z,5.00
2023-03-08T00:29:17.711Z,5.00
2023-03-08T00:31:44.663Z,4.90
2023-03-08T00:34:11.570Z,4.90
2023-03-08T00:36:38.496Z,5.00
2023-03-08T00:39:05.512Z,5.00
2023-03-08T00:41:32.546Z,4.90
2023-03-08T00:43:59.511Z,4.80
2023-03-08T00:46:26.614Z,4.80
2023-03-08T00:48:53.566Z,4.70
2023-03-08T00:51:21.375Z,4.70
2023-03-08T00:53:48.847Z,4.60
2023-03-08T00:56:15.863Z,4.40
2023-03-08T00:58:42.855Z,4.40
2023-03-08T01:01:14.430Z,4.40
2023-03-08T01:03:41.470Z,4.40
2023-03-08T01:06:12.538Z,4.40
2023-03-08T01:08:42.173Z,4.40
2023-03-08T01:11:23.490Z,4.30
2023-03-08T01:13:51.821Z,4.30
2023-03-08T01:16:24.842Z,4.20
2023-03-08T01:18:52.874Z,4.10
2023-03-08T01:21:20.386Z,4.10
2023-03-08T01:23:47.928Z,4.00
2023-03-08T01:26:17.543Z,4.00
2023-03-08T01:28:45.235Z,4.00
2023-03-08T01:31:21.418Z,4.00
2023-03-08T01:33:49.331Z,3.80
2023-03-08T01:36:20.075Z,3.70
2023-03-08T01:38:47.676Z,3.60
2023-03-08T01:41:25.935Z,3.60
2023-03-08T01:43:53.783Z,3.50
2023-03-08T01:46:34.891Z,3.60
2023-03-08T01:49:23.210Z,3.50
2023-03-08T01:52:12.771Z,3.50
2023-03-08T01:54:42.272Z,3.40
2023-03-08T01:57:23.844Z,3.40
2023-03-08T01:59:53.153Z,3.40
2023-03-08T02:02:27.195Z,3.40
2023-03-08T02:04:55.148Z,3.30
2023-03-08T02:07:22.022Z,3.20
2023-03-08T02:09:49.967Z,3.20
2023-03-08T02:12:17.754Z,3.20
2023-03-08T02:14:45.288Z,3.10
2023-03-08T02:17:12.796Z,3.00
2023-03-08T02:19:46.819Z,2.90
2023-03-08T02:22:17.202Z,2.90
2023-03-08T02:24:44.408Z,2.80
2023-03-08T02:27:20.065Z,2.70
2023-03-08T02:29:47.371Z,2.60
2023-03-08T02:32:15.853Z,2.60
2023-03-08T02:34:42.861Z,2.60
2023-03-08T02:37:09.904Z,2.60
2023-03-08T02:39:37.427Z,2.60
2023-03-08T02:42:04.511Z,2.60
2023-03-08T02:44:31.374Z,2.50
2023-03-08T02:46:58.255Z,2.50
2023-03-08T02:49:25.196Z,2.40
2023-03-08T02:51:52.071Z,2.30
2023-03-08T02:54:18.964Z,2.30
2023-03-08T02:56:45.866Z,2.30
2023-03-08T02:59:12.748Z,2.30
2023-03-08T03:01:39.684Z,2.20
2023-03-08T03:04:06.582Z,2.20
2023-03-08T03:06:33.841Z,2.10
2023-03-08T03:09:00.804Z,2.00
2023-03-08T03:11:27.681Z,2.00
2023-03-08T03:13:57.656Z,2.00
2023-03-08T03:16:25.018Z,2.00
2023-03-08T03:18:56.981Z,1.90
2023-03-08T03:21:24.519Z,1.90
2023-03-08T03:23:51.694Z,1.90
2023-03-08T03:26:21.860Z,2.00
2023-03-08T03:28:48.950Z,2.10
2023-03-08T03:31:18.592Z,2.20
2023-03-08T03:33:46.244Z,2.20
2023-03-08T03:36:16.888Z,2.20
2023-03-08T03:38:44.601Z,2.30
2023-03-08T03:41:14.663Z,2.40
2023-03-08T03:43:41.966Z,2.40
2023-03-08T03:46:12.456Z,2.40
2023-03-08T03:48:39.610Z,2.50
2023-03-08T03:51:10.429Z,2.60
2023-03-08T03:53:37.423Z,2.70
2023-03-08T03:56:22.801Z,2.80
2023-03-08T03:58:50.894Z,2.70
2023-03-08T04:01:24.753Z,2.50
2023-03-08T04:03:52.540Z,2.50
2023-03-08T04:06:28.068Z,2.40
2023-03-08T04:09:07.128Z,2.40
2023-03-08T04:11:37.045Z,2.40
2023-03-08T04:14:05.273Z,2.40
2023-03-08T04:16:35.984Z,2.50
2023-03-08T04:19:06.460Z,2.50
2023-03-08T04:21:34.043Z,2.50
2023-03-08T04:24:01.087Z,2.50
2023-03-08T04:26:28.273Z,2.50
2023-03-08T04:28:55.178Z,2.50
2023-03-08T04:31:23.797Z,2.40
2023-03-08T04:33:51.605Z,2.30
2023-03-08T04:36:19.540Z,2.30
2023-03-08T04:38:47.274Z,2.20
2023-03-08T04:41:14.735Z,2.00
2023-03-08T04:43:51.632Z,2.00
2023-03-08T04:46:20.815Z,2.00
2023-03-08T04:48:48.076Z,2.00
2023-03-08T04:51:16.576Z,2.10
2023-03-08T04:53:45.413Z,2.10
2023-03-08T04:56:14.076Z,2.10
2023-03-08T04:58:41.856Z,2.10
2023-03-08T05:01:16.574Z,2.10
2023-03-08T05:03:44.923Z,2.10
2023-03-08T05:06:14.331Z,2.00
2023-03-08T05:08:41.639Z,2.00
2023-03-08T05:11:09.100Z,2.20
2023-03-08T05:13:38.760Z,2.20
2023-03-08T05:16:08.012Z,2.20
2023-03-08T05:18:35.345Z,2.30
2023-03-08T05:21:05.455Z,2.30
2023-03-08T05:23:33.058Z,2.40
2023-03-08T05:26:01.600Z,2.40
2023-03-08T05:28:31.503Z,2.40
2023-03-08T05:31:06.267Z,2.40
2023-03-08T05:33:34.232Z,2.50
2023-03-08T05:36:01.475Z,2.50
2023-03-08T05:38:29.090Z,2.60
2023-03-08T05:41:03.534Z,2.70
2023-03-08T05:43:30.856Z,2.80
2023-03-08T05:46:10.639Z,2.90
2023-03-08T05:48:38.059Z,3.00
2023-03-08T05:51:13.865Z,3.10
2023-03-08T05:53:40.940Z,3.20
2023-03-08T05:56:13.354Z,3.30
2023-03-08T05:58:43.174Z,3.30
2023-03-08T06:01:25.218Z,3.30
2023-03-08T06:03:54.946Z,3.40
2023-03-08T06:06:23.517Z,3.40
2023-03-08T06:08:50.869Z,3.60
2023-03-08T06:11:18.525Z,3.60
2023-03-08T06:13:45.535Z,3.80
2023-03-08T06:16:12.478Z,3.80
2023-03-08T06:18:40.817Z,3.90
2023-03-08T06:21:12.364Z,4.00
2023-03-08T06:23:39.717Z,4.00
2023-03-08T06:26:07.829Z,4.00
2023-03-08T06:28:35.180Z,4.20
2023-03-08T06:31:02.595Z,4.30
2023-03-08T06:33:31.607Z,4.40
2023-03-08T06:36:00.065Z,4.60
2023-03-08T06:38:29.690Z,4.70
2023-03-08T06:40:57.165Z,4.80
2023-03-08T06:43:24.074Z,4.80
2023-03-08T06:45:51.121Z,5.00
2023-03-08T06:48:18.312Z,5.30
2023-03-08T06:50:45.642Z,5.50
2023-03-08T06:53:13.723Z,5.60
2023-03-08T06:55:42.037Z,5.70
2023-03-08T06:58:09.609Z,5.80
2023-03-08T07:00:36.548Z,6.00
2023-03-08T07:03:03.575Z,6.10
2023-03-08T07:05:30.555Z,6.10
2023-03-08T07:07:57.795Z,6.20
2023-03-08T07:10:25.038Z,6.30
2023-03-08T07:12:52.058Z,6.40
2023-03-08T07:15:21.732Z,6.40
2023-03-08T07:17:50.976Z,6.40
2023-03-08T07:20:20.176Z,6.40
2023-03-08T07:22:47.290Z,6.40
2023-03-08T07:25:16.250Z,6.50
2023-03-08T07:27:43.659Z,6.50
2023-03-08T07:30:13.942Z,6.50
2023-03-08T07:32:44.847Z,6.60
2023-03-08T07:35:14.883Z,6.60
2023-03-08T07:37:45.531Z,6.70
2023-03-08T07:40:14.631Z,6.90
2023-03-08T07:42:41.623Z,7.10
2023-03-08T07:45:10.012Z,7.40
2023-03-08T07:47:36.927Z,7.70
2023-03-08T07:50:04.334Z,8.00
2023-03-08T07:52:31.668Z,8.10
2023-03-08T07:54:58.760Z,8.30
2023-03-08T07:57:25.667Z,8.40
2023-03-08T07:59:54.184Z,8.60
2023-03-08T08:02:21.553Z,8.80
2023-03-08T08:04:48.695Z,8.90
2023-03-08T08:07:16.789Z,9.00
2023-03-08T08:09:44.081Z,9.20
2023-03-08T08:12:11.083Z,9.30
2023-03-08T08:14:38.087Z,9.50
2023-03-08T08:17:05.465Z,9.70
2023-03-08T08:19:32.532Z,9.70
2023-03-08T08:22:00.361Z,9.80
2023-03-08T08:24:28.378Z,9.80
2023-03-08T08:26:55.342Z,9.90
2023-03-08T08:29:22.257Z,9.90
2023-03-08T08:31:49.312Z,9.90
2023-03-08T08:34:16.198Z,10.00
2023-03-08T08:36:43.104Z,10.10
2023-03-08T08:39:09.979Z,10.20
2023-03-08T08:41:36.879Z,10.40
2023-03-08T08:44:04.293Z,10.80
2023-03-08T08:46:34.178Z,10.90
2023-03-08T08:49:02.671Z,10.80
2023-03-08T08:51:29.615Z,10.70
2023-03-08T08:53:56.632Z,10.80
2023-03-08T08:56:28.252Z,10.60
2023-03-08T08:59:01.430Z,10.40
2023-03-08T09:01:31.571Z,10.40
2023-03-08T09:03:59.481Z,10.40
2023-03-08T09:06:27.533Z,10.40
2023-03-08T09:08:57.169Z,10.50
2023-03-08T09:11:25.620Z,10.50
2023-03-08T09:13:53.457Z,10.60
2023-03-08T09:16:26.020Z,10.60
2023-03-08T09:18:53.495Z,10.60
2023-03-08T09:21:20.554Z,10.70
2023-03-08T09:23:47.613Z,10.80
2023-03-08T09:26:14.828Z,10.70
2023-03-08T09:28:41.828Z,10.90
2023-03-08T09:31:19.157Z,11.30
2023-03-08T09:33:48.926Z,11.30
2023-03-08T09:36:16.648Z,11.30
2023-03-08T09:38:43.660Z,11.20
2023-03-08T09:41:21.523Z,11.20
2023-03-08T09:44:19.290Z,11.20
2023-03-08T09:46:49.112Z,11.60
2023-03-08T09:49:22.903Z,12.20
2023-03-08T09:51:55.910Z,12.70
2023-03-08T09:54:24.711Z,13.20
2023-03-08T09:56:53.621Z,13.70
2023-03-08T09:59:35.622Z,13.70
2023-03-08T10:02:30.431Z,13.50
2023-03-08T10:05:46.116Z,13.40
2023-03-08T10:08:33.606Z,13.10
2023-03-08T10:11:14.090Z,13.00
2023-03-08T10:13:49.898Z,13.00
2023-03-08T10:16:23.995Z,13.00
2023-03-08T10:19:02.155Z,13.00
2023-03-08T10:21:31.700Z,12.70
2023-03-08T10:24:07.570Z,12.70
2023-03-08T10:26:34.597Z,12.60
2023-03-08T10:29:01.547Z,12.70
2023-03-08T10:31:30.949Z,12.80
2023-03-08T10:34:17.012Z,12.80
2023-03-08T10:36:48.521Z,12.90
2023-03-08T10:39:16.673Z,12.70
2023-03-08T10:42:11.490Z,12.60
2023-03-08T10:44:42.891Z,12.60
2023-03-08T10:47:34.283Z,12.50
2023-03-08T10:50:18.053Z,12.70
2023-03-08T10:52:46.527Z,12.80
2023-03-08T10:55:20.059Z,12.90
2023-03-08T10:58:03.111Z,12.90
2023-03-08T11:00:34.592Z,13.20
2023-03-08T11:03:11.856Z,13.20
2023-03-08T11:05:39.182Z,13.30
2023-03-08T11:08:18.766Z,13.40
2023-03-08T11:10:45.853Z,13.30
2023-03-08T11:13:19.948Z,13.20
2023-03-08T11:15:56.401Z,13.10
2023-03-08T11:19:24.599Z,13.10
2023-03-08T11:22:28.619Z,13.00
2023-03-08T11:25:13.172Z,12.90
2023-03-08T11:28:01.922Z,12.80
2023-03-08T11:30:35.802Z,12.70
2023-03-08T11:33:27.776Z,12.60
2023-03-08T11:36:16.378Z,12.70
2023-03-08T11:38:45.132Z,12.90
2023-03-08T11:41:39.784Z,13.00
2023-03-08T11:44:31.680Z,13.00
2023-03-08T11:47:17.297Z,13.10
2023-03-08T11:50:06.141Z,13.00
2023-03-08T11:52:58.074Z,13.00
2023-03-08T11:55:46.093Z,13.00
2023-03-08T11:58:30.875Z,13.10
2023-03-08T12:01:02.270Z,13.10
2023-03-08T12:03:38.522Z,13.00
2023-03-08T12:06:28.327Z,13.10
2023-03-08T12:09:01.687Z,13.10
2023-03-08T12:11:54.679Z,13.00
2023-03-08T12:14:31.233Z,13.00
2023-03-08T12:17:16.689Z,12.90
2023-03-08T12:19:49.589Z,12.80
2023-03-08T12:22:35.741Z,12.70
2023-03-08T12:25:29.644Z,12.60
2023-03-08T12:27:56.501Z,12.60
2023-03-08T12:30:34.962Z,12.50
2023-03-08T12:33:06.839Z,12.40
2023-03-08T12:35:38.757Z,12.30
2023-03-08T12:38:26.792Z,12.20
2023-03-08T12:40:55.628Z,12.20
2023-03-08T12:43:22.507Z,12.20
2023-03-08T12:46:06.364Z,12.20
2023-03-08T12:48:45.267Z,12.10
2023-03-08T12:51:12.146Z,12.00
2023-03-08T12:53:39.081Z,12.00
2023-03-08T12:56:10.557Z,12.00
2023-03-08T12:58:54.722Z,12.10
2023-03-08T13:01:29.864Z,12.10
2023-03-08T13:03:57.206Z,12.10
2023-03-08T13:06:24.476Z,12.00
2023-03-08T13:08:56.248Z,12.10
2023-03-08T13:11:25.998Z,12.30
2023-03-08T13:14:02.143Z,12.40
2023-03-08T13:16:39.183Z,12.50
2023-03-08T13:19:15.240Z,12.40
2023-03-08T13:22:09.298Z,12.20
2023-03-08T13:24:51.847Z,12.10
2023-03-08T13:27:18.781Z,12.00
2023-03-08T13:29:47.850Z,12.00
2023-03-08T13:32:21.406Z,12.00
2023-03-08T13:35:02.465Z,12.10
2023-03-08T13:37:30.885Z,12.20
2023-03-08T13:40:00.083Z,12.20
2023-03-08T13:42:29.036Z,12.10
2023-03-08T13:45:10.165Z,12.10
2023-03-08T13:47:39.701Z,12.20
2023-03-08T13:50:07.201Z,12.10
2023-03-08T13:52:37.636Z,12.10
2023-03-08T13:55:15.163Z,12.10
2023-03-08T13:57:42.847Z,12.00
2023-03-08T14:00:30.049Z,12.10
2023-03-08T14:02:57.918Z,12.10
2023-03-08T14:05:31.252Z,12.10
2023-03-08T14:08:04.409Z,12.20
2023-03-08T14:10:51.511Z,12.20
2023-03-08T14:13:35.481Z,12.30
2023-03-08T14:16:05.605Z,12.30
2023-03-08T14:18:41.764Z,12.30
2023-03-08T14:21:19.623Z,12.40
2023-03-08T14:23:52.853Z,12.40
2023-03-08T14:26:37.515Z,12.30
2023-03-08T14:29:10.532Z,12.30
2023-03-08T14:31:39.197Z,12.30
2023-03-08T14:34:23.079Z,12.30
2023-03-08T14:37:12.650Z,12.40
2023-03-08T14:39:42.814Z,12.40
2023-03-08T14:42:31.860Z,12.50
2023-03-08T14:45:05.258Z,12.60
2023-03-08T14:47:34.459Z,12.70
2023-03-08T14:50:18.144Z,12.70
2023-03-08T14:52:48.178Z,12.70
2023-03-08T14:55:27.200Z,12.60
2023-03-08T14:58:00.722Z,12.60
2023-03-08T15:00:29.211Z,12.40
2023-03-08T15:03:00.534Z,12.40
2023-03-08T15:05:30.130Z,12.30
2023-03-08T15:07:59.389Z,12.30
2023-03-08T15:10:37.416Z,12.30
2023-03-08T15:13:05.882Z,12.30
2023-03-08T15:15:32.803Z,12.30
2023-03-08T15:17:59.703Z,12.30
2023-03-08T15:20:26.743Z,12.30
2023-03-08T15:22:56.888Z,12.30
2023-03-08T15:25:29.672Z,12.30
2023-03-08T15:27:57.014Z,12.30
2023-03-08T15:30:26.710Z,12.40
2023-03-08T15:32:54.675Z,12.40
2023-03-08T15:35:22.478Z,12.30
2023-03-08T15:37:50.121Z,12.30
2023-03-08T15:40:23.617Z,12.30
2023-03-08T15:42:50.550Z,12.30
2023-03-08T15:45:17.539Z,12.30
2023-03-08T15:47:44.732Z,12.30
2023-03-08T15:50:18.920Z,12.30
2023-03-08T15:52:46.056Z,12.30
2023-03-08T15:55:14.267Z,12.30
2023-03-08T15:57:41.759Z,12.20
2023-03-08T16:00:12.570Z,12.20
2023-03-08T16:02:40.585Z,12.20
2023-03-08T16:05:10.030Z,12.10
2023-03-08T16:07:37.447Z,12.10
2023-03-08T16:10:06.478Z,12.10
2023-03-08T16:12:33.529Z,12.10
2023-03-08T16:15:00.553Z,12.00
2023-03-08T16:17:30.720Z,12.00
2023-03-08T16:19:57.675Z,12.00
2023-03-08T16:22:26.853Z,12.00
2023-03-08T16:24:54.922Z,12.00
2023-03-08T16:27:22.320Z,12.00
2023-03-08T16:29:52.903Z,12.00
2023-03-08T16:32:20.629Z,11.90
2023-03-08T16:34:50.944Z,12.00
2023-03-08T16:37:21.388Z,12.00
2023-03-08T16:39:52.241Z,11.90
2023-03-08T16:42:20.191Z,11.90
2023-03-08T16:44:54.638Z,11.90
2023-03-08T16:47:23.774Z,11.90
2023-03-08T16:49:50.688Z,11.90
2023-03-08T16:52:18.372Z,11.90
2023-03-08T16:54:45.753Z,11.90
2023-03-08T16:57:19.683Z,11.90
2023-03-08T16:59:47.717Z,11.90
2023-03-08T17:02:20.986Z,11.80
2023-03-08T17:04:49.308Z,11.90
2023-03-08T17:07:17.251Z,11.80
2023-03-08T17:09:44.544Z,11.90
2023-03-08T17:12:11.588Z,11.90
2023-03-08T17:14:38.677Z,11.90
2023-03-08T17:17:05.848Z,11.80
2023-03-08T17:19:32.824Z,11.80
2023-03-08T17:21:59.697Z,11.80
2023-03-08T17:24:28.338Z,11.80
2023-03-08T17:26:55.927Z,11.70
2023-03-08T17:29:23.377Z,11.70
2023-03-08T17:31:51.314Z,11.70
2023-03-08T17:34:21.928Z,11.70
2023-03-08T17:36:51.214Z,11.70
2023-03-08T17:39:18.417Z,11.70
2023-03-08T17:41:45.874Z,11.70
2023-03-08T17:44:13.184Z,11.70
2023-03-08T17:46:40.678Z,11.70
2023-03-08T17:49:08.214Z,11.70
2023-03-08T17:51:35.346Z,11.70
2023-03-08T17:54:03.609Z,11.70
2023-03-08T17:56:32.207Z,11.70
2023-03-08T17:59:01.260Z,11.70
2023-03-08T18:01:31.333Z,11.70
2023-03-08T18:03:59.618Z,11.70
2023-03-08T18:06:43.615Z,11.70
2023-03-08T18:09:13.841Z,11.70
2023-03-08T18:11:41.608Z,11.70
2023-03-08T18:14:12.838Z,11.70
2023-03-08T18:16:41.058Z,11.70
2023-03-08T18:19:08.555Z,11.70
2023-03-08T18:21:39.326Z,11.70
2023-03-08T18:24:09.665Z,11.70
2023-03-08T18:26:36.685Z,11.70
2023-03-08T18:29:07.287Z,11.70
2023-03-08T18:31:37.656Z,11.70
2023-03-08T18:34:06.429Z,11.70
2023-03-08T18:36:35.005Z,11.60
2023-03-08T18:39:06.396Z,11.60
2023-03-08T18:41:34.429Z,11.60
2023-03-08T18:44:01.582Z,11.60
2023-03-08T18:46:31.231Z,11.60
2023-03-08T18:49:07.575Z,11.60
2023-03-08T18:51:37.832Z,11.50
2023-03-08T18:54:05.968Z,11.50
2023-03-08T18:56:33.789Z,11.50
2023-03-08T18:59:05.887Z,11.40
2023-03-08T19:01:37.104Z,11.40
2023-03-08T19:04:08.263Z,11.30
2023-03-08T19:06:37.234Z,11.30
2023-03-08T19:09:14.629Z,11.30
2023-03-08T19:11:42.984Z,11.20
2023-03-08T19:14:12.726Z,11.20
2023-03-08T19:16:43.909Z,11.20
2023-03-08T19:19:14.448Z,11.20
2023-03-08T19:21:47.216Z,11.20
2023-03-08T19:24:16.686Z,11.10
2023-03-08T19:26:47.792Z,11.10
2023-03-08T19:29:15.592Z,11.10
2023-03-08T19:31:58.048Z,11.10
2023-03-08T19:34:29.014Z,11.00
2023-03-08T19:36:57.594Z,11.00
2023-03-08T19:39:29.200Z,11.00
2023-03-08T19:41:59.330Z,11.00
2023-03-08T19:44:29.552Z,11.00
2023-03-08T19:46:58.642Z,11.00
2023-03-08T19:49:32.618Z,10.90
2023-03-08T19:52:04.286Z,10.90
2023-03-08T19:54:35.748Z,10.90
2023-03-08T19:57:04.930Z,10.90
2023-03-08T19:59:34.361Z,10.90
2023-03-08T20:02:04.680Z,10.80
2023-03-08T20:04:32.698Z,10.80
2023-03-08T20:07:02.211Z,10.70
2023-03-08T20:09:30.353Z,10.70
2023-03-08T20:11:59.186Z,10.70
2023-03-08T20:14:28.717Z,10.70
2023-03-08T20:16:57.807Z,10.70
2023-03-08T20:19:27.621Z,10.70
2023-03-08T20:21:55.831Z,10.70
2023-03-08T20:24:25.550Z,10.70
2023-03-08T20:26:53.245Z,10.70
2023-03-08T20:29:21.394Z,10.70
2023-03-08T20:31:49.424Z,10.70
2023-03-08T20:34:21.328Z,10.60
2023-03-08T20:36:49.711Z,10.60
2023-03-08T20:39:18.957Z,10.60
2023-03-08T20:41:46.782Z,10.60
2023-03-08T20:44:16.416Z,10.60
2023-03-08T20:46:46.669Z,10.60
2023-03-08T20:49:14.221Z,10.60
2023-03-08T20:51:41.769Z,10.60
2023-03-08T20:54:10.642Z,10.60
2023-03-08T20:56:38.358Z,10.60
2023-03-08T20:59:06.823Z,10.60
2023-03-08T21:01:35.326Z,10.60
2023-03-08T21:04:03.859Z,10.70
2023-03-08T21:06:32.815Z,10.70
2023-03-08T21:09:04.385Z,10.70
2023-03-08T21:11:34.865Z,10.80
2023-03-08T21:14:02.911Z,10.80
2023-03-08T21:16:32.273Z,10.80
2023-03-08T21:19:02.603Z,10.70
2023-03-08T21:21:35.653Z,10.90
2023-03-08T21:24:14.941Z,10.90
2023-03-08T21:26:43.807Z,10.90
2023-03-08T21:29:16.572Z,10.90
2023-03-08T21:31:50.933Z,10.80
2023-03-08T21:34:19.197Z,10.90
2023-03-08T21:36:46.983Z,10.90
2023-03-08T21:39:14.567Z,10.90
2023-03-08T21:41:44.997Z,10.90
2023-03-08T21:44:19.048Z,10.90
2023-03-08T21:46:47.550Z,10.80
2023-03-08T21:49:25.029Z,10.80
2023-03-08T21:51:54.115Z,10.80
2023-03-08T21:54:22.788Z,10.80
2023-03-08T21:56:50.321Z,10.80
2023-03-08T21:59:17.897Z,10.80
2023-03-08T22:01:48.240Z,10.80
2023-03-08T22:04:16.837Z,10.80
2023-03-08T22:06:43.963Z,10.80
2023-03-08T22:09:11.012Z,10.90
2023-03-08T22:11:38.373Z,10.90
2023-03-08T22:14:05.568Z,11.00
2023-03-08T22:16:33.779Z,11.00
2023-03-08T22:19:02.232Z,11.00
2023-03-08T22:21:29.680Z,11.00
2023-03-08T22:23:59.031Z,11.00
2023-03-08T22:26:27.472Z,11.00
2023-03-08T22:28:55.678Z,11.00
2023-03-08T22:31:25.709Z,11.00
2023-03-08T22:33:52.765Z,11.00
2023-03-08T22:36:20.995Z,11.00
2023-03-08T22:38:48.129Z,11.00
2023-03-08T22:41:21.189Z,11.00
2023-03-08T22:43:49.198Z,11.00
2023-03-08T22:46:19.265Z,11.00
2023-03-08T22:48:48.164Z,11.00
2023-03-08T22:51:16.654Z,11.00
2023-03-08T22:53:43.706Z,11.00
2023-03-08T22:56:18.544Z,10.90
2023-03-08T22:58:45.476Z,10.90
2023-03-08T23:01:18.719Z,10.90
2023-03-08T23:03:46.240Z,10.90
2023-03-08T23:06:13.193Z,10.80
2023-03-08T23:08:40.131Z,10.80
2023-03-08T23:11:07.493Z,10.70
2023-03-08T23:13:34.930Z,10.70
2023-03-08T23:16:02.278Z,10.60
2023-03-08T23:18:29.244Z,10.60
2023-03-08T23:20:56.231Z,10.60
2023-03-08T23:23:25.237Z,10.50
2023-03-08T23:25:52.702Z,10.40
2023-03-08T23:28:20.068Z,10.40
2023-03-08T23:30:46.997Z,10.40
2023-03-08T23:33:13.986Z,10.40
2023-03-08T23:35:41.342Z,10.40
2023-03-08T23:38:08.287Z,10.40
2023-03-08T23:40:38.983Z,10.40
2023-03-08T23:43:06.796Z,10.40
2023-03-08T23:45:33.722Z,10.40
2023-03-08T23:48:02.913Z,10.40
2023-03-08T23:50:30.229Z,10.40
2023-03-08T23:52:57.189Z,10.40
2023-03-08T23:55:24.165Z,10.40
2023-03-08T23:57:51.033Z,10.40
